createdAt,value
2019-04-06T00:00:24.560Z,99.90
2019-04-06T00:02:52.978Z,99.90
2019-04-06T00:05:21.389Z,99.90
2019-04-06T00:07:50.000Z,99.90
2019-04-06T00:10:18.405Z,99.90
2019-04-06T00:12:46.808Z,99.90
2019-04-06T00:15:15.229Z,99.90
2019-04-06T00:17:43.635Z,99.90
2019-04-06T00:20:12.370Z,99.90
2019-04-06T00:22:41.082Z,99.90
2019-04-06T00:25:09.574Z,99.90
2019-04-06T00:27:40.929Z,99.90
2019-04-06T00:30:11.261Z,99.90
2019-04-06T00:32:50.100Z,99.90
2019-04-06T00:35:18.528Z,99.90
2019-04-06T00:37:46.940Z,99.90
2019-04-06T00:40:15.569Z,99.90
2019-04-06T00:42:44.002Z,99.90
2019-04-06T00:45:12.473Z,99.90
2019-04-06T00:47:40.865Z,99.90
2019-04-06T00:50:09.535Z,99.90
2019-04-06T00:52:37.956Z,99.90
2019-04-06T00:55:06.352Z,99.90
2019-04-06T00:57:34.896Z,99.90
2019-04-06T01:00:04.446Z,99.90
2019-04-06T01:02:32.944Z,99.90
2019-04-06T01:05:01.336Z,99.90
2019-04-06T01:07:29.752Z,99.90
2019-04-06T01:09:58.156Z,99.90
2019-04-06T01:12:26.553Z,99.90
2019-04-06T01:14:54.980Z,99.90
2019-04-06T01:17:23.373Z,99.90
2019-04-06T01:19:51.794Z,99.90
2019-04-06T01:22:20.196Z,99.90
2019-04-06T01:24:48.626Z,99.90
2019-04-06T01:27:17.055Z,99.90
2019-04-06T01:29:45.468Z,99.90
2019-04-06T01:32:13.871Z,99.90
2019-04-06T01:34:42.297Z,99.90
2019-04-06T01:37:10.692Z,99.90
2019-04-06T01:39:39.088Z,99.90
2019-04-06T01:42:07.949Z,99.90
2019-04-06T01:44:36.415Z,99.90
2019-04-06T01:47:04.817Z,99.90
2019-04-06T01:49:33.248Z,99.90
2019-04-06T01:52:01.657Z,99.90
2019-04-06T01:54:30.123Z,99.90
2019-04-06T01:56:58.768Z,99.90
2019-04-06T01:59:27.173Z,99.90
2019-04-06T02:02:09.252Z,99.90
2019-04-06T02:04:37.684Z,99.90
2019-04-06T02:07:06.125Z,99.90
2019-04-06T02:09:34.517Z,99.90
2019-04-06T02:12:02.920Z,99.90
2019-04-06T02:14:31.360Z,99.90
2019-04-06T02:16:59.822Z,99.90
2019-04-06T02:19:28.248Z,99.90
2019-04-06T02:21:56.678Z,99.90
2019-04-06T02:24:25.074Z,99.90
2019-04-06T02:26:53.473Z,99.90
2019-04-06T02:29:21.917Z,99.90
2019-04-06T02:32:06.909Z,99.90
2019-04-06T02:34:55.011Z,99.90
2019-04-06T02:37:30.581Z,99.90
2019-04-06T02:40:03.529Z,99.90
2019-04-06T02:42:48.442Z,99.90
2019-04-06T02:45:17.119Z,99.90
2019-04-06T02:47:45.783Z,99.90
2019-04-06T02:50:14.318Z,99.90
2019-04-06T02:52:42.756Z,99.90
2019-04-06T02:55:11.221Z,99.90
2019-04-06T02:57:39.613Z,99.90
2019-04-06T03:00:08.557Z,99.90
2019-04-06T03:02:37.030Z,99.90
2019-04-06T03:05:06.736Z,99.90
2019-04-06T03:07:35.623Z,99.90
2019-04-06T03:10:06.561Z,99.90
2019-04-06T03:12:34.952Z,99.90
2019-04-06T03:15:03.522Z,99.90
2019-04-06T03:17:32.153Z,99.90
2019-04-06T03:20:00.529Z,99.90
2019-04-06T03:22:28.969Z,99.90
2019-04-06T03:24:57.368Z,99.90
2019-04-06T03:27:25.779Z,99.90
2019-04-06T03:29:58.220Z,99.90
2019-04-06T03:32:24.431Z,99.90
2019-04-06T03:34:52.886Z,99.90
2019-04-06T03:37:21.318Z,99.90
2019-04-06T03:39:49.717Z,99.90
2019-04-06T03:42:18.114Z,99.90
2019-04-06T03:44:46.549Z,99.90
2019-04-06T03:47:15.030Z,99.90
2019-04-06T03:49:43.433Z,99.90
2019-04-06T03:52:12.010Z,99.90
2019-04-06T03:54:40.409Z,99.90
2019-04-06T03:57:15.907Z,99.90
2019-04-06T03:59:39.199Z,99.90
2019-04-06T04:02:07.720Z,99.90
2019-04-06T04:04:36.510Z,99.90
2019-04-06T04:07:05.082Z,99.90
2019-04-06T04:09:33.485Z,99.90
2019-04-06T04:12:01.894Z,99.90
2019-04-06T04:14:30.323Z,99.90
2019-04-06T04:16:58.729Z,99.90
2019-04-06T04:19:27.142Z,99.90
2019-04-06T04:21:55.817Z,99.90
2019-04-06T04:24:24.272Z,99.90
2019-04-06T04:26:52.823Z,99.90
2019-04-06T04:29:21.525Z,99.90
2019-04-06T04:31:50.184Z,99.90
2019-04-06T04:34:18.597Z,99.90
2019-04-06T04:36:47.035Z,99.90
2019-04-06T04:39:15.421Z,99.90
2019-04-06T04:41:43.948Z,99.90
2019-04-06T04:44:12.397Z,99.90
2019-04-06T04:46:40.796Z,99.90
2019-04-06T04:49:09.252Z,99.90
2019-04-06T04:51:37.742Z,99.90
2019-04-06T04:54:06.118Z,99.90
2019-04-06T04:56:34.926Z,99.90
2019-04-06T04:59:03.331Z,99.90
2019-04-06T05:01:31.716Z,99.90
2019-04-06T05:04:00.169Z,99.90
2019-04-06T05:06:28.564Z,99.90
2019-04-06T05:08:57.013Z,99.90
2019-04-06T05:11:25.476Z,99.90
2019-04-06T05:14:13.413Z,99.90
2019-04-06T05:16:41.851Z,99.90
2019-04-06T05:19:10.269Z,99.90
2019-04-06T05:21:38.685Z,99.90
2019-04-06T05:24:07.850Z,99.90
2019-04-06T05:26:37.937Z,99.90
2019-04-06T05:29:06.368Z,99.90
2019-04-06T05:31:34.996Z,99.90
2019-04-06T05:34:03.373Z,99.90
2019-04-06T05:36:31.768Z,99.90
2019-04-06T05:39:00.200Z,99.90
2019-04-06T05:41:28.628Z,99.90
2019-04-06T05:43:57.088Z,99.90
2019-04-06T05:46:25.532Z,99.90
2019-04-06T05:48:54.008Z,99.90
2019-04-06T05:51:22.408Z,99.90
2019-04-06T05:53:50.947Z,99.90
2019-04-06T05:56:19.429Z,99.90
2019-04-06T05:58:47.841Z,99.90
2019-04-06T06:01:16.320Z,99.90
2019-04-06T06:03:44.760Z,99.90
2019-04-06T06:06:13.421Z,99.90
2019-04-06T06:08:41.837Z,99.90
2019-04-06T06:11:10.317Z,99.90
2019-04-06T06:13:39.446Z,99.90
2019-04-06T06:16:07.888Z,99.90
2019-04-06T06:18:36.322Z,99.90
2019-04-06T06:21:04.723Z,99.90
2019-04-06T06:23:33.192Z,99.90
2019-04-06T06:26:01.747Z,99.90
2019-04-06T06:28:30.172Z,99.90
2019-04-06T06:30:58.632Z,99.90
2019-04-06T06:33:27.076Z,99.90
2019-04-06T06:35:55.472Z,99.90
2019-04-06T06:38:23.904Z,99.90
2019-04-06T06:40:52.308Z,99.90
2019-04-06T06:43:20.880Z,99.90
2019-04-06T06:45:49.312Z,99.90
2019-04-06T06:48:17.712Z,99.90
2019-04-06T06:50:46.314Z,99.90
2019-04-06T06:53:14.730Z,99.90
2019-04-06T06:55:43.488Z,99.90
2019-04-06T06:58:12.006Z,99.90
2019-04-06T07:00:40.440Z,99.90
2019-04-06T07:03:08.857Z,99.90
2019-04-06T07:05:37.334Z,99.90
2019-04-06T07:08:05.788Z,99.90
2019-04-06T07:10:34.192Z,99.90
2019-04-06T07:13:02.606Z,99.90
2019-04-06T07:15:31.045Z,99.90
2019-04-06T07:17:59.448Z,99.90
2019-04-06T07:20:27.982Z,99.90
2019-04-06T07:22:56.592Z,99.90
2019-04-06T07:25:25.139Z,99.90
2019-04-06T07:27:54.532Z,99.90
2019-04-06T07:30:23.108Z,99.90
2019-04-06T07:32:51.501Z,99.90
2019-04-06T07:35:19.964Z,99.90
2019-04-06T07:37:48.384Z,99.90
2019-04-06T07:40:16.930Z,99.90
2019-04-06T07:42:45.424Z,99.90
2019-04-06T07:45:14.944Z,99.90
2019-04-06T07:47:43.367Z,99.90
2019-04-06T07:50:12.561Z,99.70
2019-04-06T07:52:41.042Z,99.00
2019-04-06T07:55:10.324Z,98.90
2019-04-06T07:57:38.918Z,98.90
2019-04-06T08:00:08.385Z,98.80
2019-04-06T08:02:36.783Z,97.90
2019-04-06T08:05:06.388Z,97.20
2019-04-06T08:07:34.776Z,97.40
2019-04-06T08:10:03.517Z,96.60
2019-04-06T08:12:32.153Z,96.30
2019-04-06T08:15:00.641Z,95.90
2019-04-06T08:17:29.338Z,95.80
2019-04-06T08:19:57.789Z,95.70
2019-04-06T08:22:26.279Z,95.10
2019-04-06T08:24:54.721Z,95.30
2019-04-06T08:27:23.315Z,94.50
2019-04-06T08:29:51.988Z,93.90
2019-04-06T08:32:20.422Z,93.70
2019-04-06T08:34:48.855Z,93.20
2019-04-06T08:37:17.292Z,93.00
2019-04-06T08:39:45.714Z,92.50
2019-04-06T08:42:14.185Z,92.60
2019-04-06T08:44:42.609Z,92.20
2019-04-06T08:47:11.301Z,92.40
2019-04-06T08:49:39.729Z,91.60
2019-04-06T08:52:08.136Z,91.40
2019-04-06T08:54:36.546Z,91.20
2019-04-06T08:57:05.029Z,91.00
2019-04-06T08:59:33.461Z,91.10
2019-04-06T09:02:02.141Z,90.30
2019-04-06T09:04:30.656Z,90.00
2019-04-06T09:06:59.054Z,90.00
2019-04-06T09:09:27.681Z,90.30
2019-04-06T09:11:56.188Z,89.60
2019-04-06T09:14:24.588Z,88.80
2019-04-06T09:16:52.990Z,89.20
2019-04-06T09:19:21.505Z,88.60
2019-04-06T09:21:50.305Z,88.60
2019-04-06T09:24:18.807Z,88.20
2019-04-06T09:26:48.478Z,87.50
2019-04-06T09:29:23.634Z,87.00
2019-04-06T09:31:48.153Z,87.00
2019-04-06T09:34:16.532Z,84.70
2019-04-06T09:36:44.936Z,83.90
2019-04-06T09:39:13.776Z,84.00
2019-04-06T09:41:42.507Z,82.90
2019-04-06T09:44:12.855Z,82.30
2019-04-06T09:46:57.916Z,82.30
2019-04-06T09:49:27.958Z,80.90
2019-04-06T09:52:14.681Z,81.30
2019-04-06T09:54:47.961Z,79.00
2019-04-06T09:57:36.311Z,77.80
2019-04-06T10:00:11.597Z,77.30
2019-04-06T10:02:58.080Z,75.10
2019-04-06T10:05:30.872Z,75.20
2019-04-06T10:08:06.726Z,75.30
2019-04-06T10:10:53.272Z,75.00
2019-04-06T10:13:32.644Z,74.00
2019-04-06T10:16:17.724Z,73.80
2019-04-06T10:18:50.215Z,72.00
2019-04-06T10:21:38.703Z,72.10
2019-04-06T10:24:21.995Z,70.60
2019-04-06T10:27:08.568Z,70.00
2019-04-06T10:29:57.178Z,69.70
2019-04-06T10:32:42.949Z,69.70
2019-04-06T10:35:21.853Z,68.80
2019-04-06T10:37:55.109Z,67.30
2019-04-06T10:40:41.577Z,66.60
2019-04-06T10:43:28.232Z,66.90
2019-04-06T10:46:01.417Z,65.90
2019-04-06T10:48:34.301Z,67.60
2019-04-06T10:51:07.400Z,67.50
2019-04-06T10:53:52.748Z,66.70
2019-04-06T10:56:32.149Z,64.90
2019-04-06T10:59:10.704Z,64.60
2019-04-06T11:01:49.921Z,65.80
2019-04-06T11:04:26.233Z,64.20
2019-04-06T11:06:56.487Z,63.80
2019-04-06T11:09:41.778Z,61.90
2019-04-06T11:12:11.920Z,61.20
2019-04-06T11:14:42.236Z,61.80
2019-04-06T11:17:15.167Z,60.50
2019-04-06T11:19:51.138Z,59.90
2019-04-06T11:22:37.636Z,59.50
2019-04-06T11:25:23.384Z,60.20
2019-04-06T11:28:09.864Z,58.70
2019-04-06T11:30:45.791Z,59.70
2019-04-06T11:33:25.101Z,58.80
2019-04-06T11:35:55.253Z,59.20
2019-04-06T11:38:28.037Z,58.30
2019-04-06T11:41:10.268Z,58.50
2019-04-06T11:43:43.073Z,57.10
2019-04-06T11:46:25.428Z,56.50
2019-04-06T11:49:10.607Z,56.80
2019-04-06T11:51:58.448Z,56.80
2019-04-06T11:54:44.548Z,56.20
2019-04-06T11:57:17.335Z,55.00
2019-04-06T11:59:53.509Z,54.30
2019-04-06T12:02:26.309Z,53.90
2019-04-06T12:04:56.464Z,52.90
2019-04-06T12:07:32.497Z,52.50
2019-04-06T12:10:05.784Z,51.90
2019-04-06T12:12:48.285Z,52.10
2019-04-06T12:15:18.458Z,51.00
2019-04-06T12:17:48.546Z,53.10
2019-04-06T12:20:36.996Z,52.60
2019-04-06T12:23:23.370Z,52.30
2019-04-06T12:25:56.116Z,52.50
2019-04-06T12:28:44.634Z,50.00
2019-04-06T12:31:24.410Z,48.80
2019-04-06T12:34:10.674Z,46.60
2019-04-06T12:36:52.554Z,45.10
2019-04-06T12:39:37.695Z,45.40
2019-04-06T12:42:07.794Z,43.20
2019-04-06T12:44:37.822Z,41.10
2019-04-06T12:47:20.609Z,40.40
2019-04-06T12:50:08.517Z,39.30
2019-04-06T12:52:38.600Z,38.50
2019-04-06T12:55:08.877Z,38.30
2019-04-06T12:57:48.392Z,37.20
2019-04-06T13:00:34.018Z,36.60
2019-04-06T13:03:22.535Z,35.80
2019-04-06T13:05:55.583Z,35.90
2019-04-06T13:08:25.860Z,38.30
2019-04-06T13:11:12.307Z,38.00
2019-04-06T13:13:51.223Z,38.80
2019-04-06T13:16:26.072Z,38.50
2019-04-06T13:19:21.165Z,38.80
2019-04-06T13:22:07.748Z,39.20
2019-04-06T13:24:40.316Z,39.80
2019-04-06T13:27:16.189Z,41.50
2019-04-06T13:29:49.061Z,42.80
2019-04-06T13:32:19.178Z,44.70
2019-04-06T13:34:52.169Z,44.80
2019-04-06T13:37:22.304Z,45.00
2019-04-06T13:40:04.405Z,45.40
2019-04-06T13:42:34.688Z,45.50
2019-04-06T13:45:18.219Z,45.10
2019-04-06T13:47:48.297Z,43.70
2019-04-06T13:50:21.960Z,43.70
2019-04-06T13:52:54.779Z,44.50
2019-04-06T13:55:27.592Z,45.90
2019-04-06T13:58:12.456Z,46.90
2019-04-06T14:00:45.669Z,48.00
2019-04-06T14:03:32.000Z,48.70
2019-04-06T14:06:18.647Z,50.20
2019-04-06T14:08:51.282Z,51.20
2019-04-06T14:11:21.356Z,52.30
2019-04-06T14:13:54.378Z,53.00
2019-04-06T14:16:39.824Z,53.80
2019-04-06T14:19:16.236Z,53.80
2019-04-06T14:21:55.392Z,54.10
2019-04-06T14:24:41.797Z,54.00
2019-04-06T14:27:14.317Z,54.40
2019-04-06T14:29:45.294Z,55.10
2019-04-06T14:32:33.602Z,56.40
2019-04-06T14:35:03.646Z,55.90
2019-04-06T14:37:33.831Z,55.50
2019-04-06T14:40:06.691Z,55.80
2019-04-06T14:42:49.316Z,56.00
2019-04-06T14:45:35.618Z,56.40
2019-04-06T14:48:05.668Z,57.30
2019-04-06T14:50:38.644Z,58.90
2019-04-06T14:53:14.762Z,58.40
2019-04-06T14:55:50.792Z,58.70
2019-04-06T14:58:37.109Z,58.90
2019-04-06T15:01:38.447Z,58.20
2019-04-06T15:03:57.641Z,57.90
2019-04-06T15:06:45.868Z,58.00
2019-04-06T15:09:16.404Z,57.30
2019-04-06T15:11:46.898Z,57.70
2019-04-06T15:14:29.229Z,58.20
2019-04-06T15:17:05.208Z,58.30
2019-04-06T15:19:41.503Z,58.60
2019-04-06T15:22:14.332Z,57.80
2019-04-06T15:25:01.083Z,57.70
2019-04-06T15:27:31.217Z,58.00
2019-04-06T15:30:17.877Z,58.50
2019-04-06T15:32:57.235Z,58.60
2019-04-06T15:35:27.467Z,58.70
2019-04-06T15:37:57.953Z,59.10
2019-04-06T15:40:28.065Z,59.20
2019-04-06T15:43:18.815Z,58.80
2019-04-06T15:45:48.404Z,57.70
2019-04-06T15:48:37.978Z,55.10
2019-04-06T15:51:06.776Z,52.40
2019-04-06T15:53:51.956Z,50.00
2019-04-06T15:56:22.103Z,48.30
2019-04-06T15:58:52.146Z,46.50
2019-04-06T16:01:33.957Z,45.20
2019-04-06T16:04:04.037Z,44.00
2019-04-06T16:06:36.789Z,43.00
2019-04-06T16:09:14.456Z,41.80
2019-04-06T16:12:01.236Z,41.60
2019-04-06T16:14:46.611Z,41.10
2019-04-06T16:17:19.325Z,40.20
2019-04-06T16:19:49.446Z,40.70
2019-04-06T16:22:37.711Z,41.00
2019-04-06T16:25:08.087Z,41.10
2019-04-06T16:27:54.663Z,42.00
2019-04-06T16:30:24.769Z,43.10
2019-04-06T16:32:54.848Z,44.10
2019-04-06T16:35:27.893Z,45.00
2019-04-06T16:38:00.634Z,46.20
2019-04-06T16:40:36.393Z,46.60
2019-04-06T16:43:21.661Z,46.80
2019-04-06T16:45:58.047Z,47.20
2019-04-06T16:48:34.117Z,47.50
2019-04-06T16:51:07.277Z,48.00
2019-04-06T16:53:52.626Z,48.70
2019-04-06T16:56:38.287Z,48.80
2019-04-06T16:59:08.320Z,49.90
2019-04-06T17:01:41.251Z,50.50
2019-04-06T17:04:11.360Z,51.10
2019-04-06T17:06:41.721Z,51.70
2019-04-06T17:09:21.069Z,52.40
2019-04-06T17:12:03.101Z,53.10
2019-04-06T17:14:39.363Z,53.30
2019-04-06T17:17:24.459Z,53.90
2019-04-06T17:20:00.829Z,53.70
2019-04-06T17:22:40.243Z,54.50
2019-04-06T17:25:13.162Z,55.50
2019-04-06T17:27:59.304Z,56.20
2019-04-06T17:30:29.767Z,57.30
2019-04-06T17:33:16.522Z,58.00
2019-04-06T17:35:49.347Z,58.80
2019-04-06T17:38:34.697Z,60.00
2019-04-06T17:41:13.581Z,61.10
2019-04-06T17:43:52.387Z,62.10
2019-04-06T17:46:38.008Z,63.50
2019-04-06T17:49:20.259Z,64.50
2019-04-06T17:51:51.061Z,65.80
2019-04-06T17:54:39.421Z,67.40
2019-04-06T17:57:09.959Z,69.00
2019-04-06T17:59:55.337Z,70.70
2019-04-06T18:02:48.707Z,72.20
2019-04-06T18:05:30.263Z,73.10
2019-04-06T18:08:06.345Z,74.40
2019-04-06T18:10:52.889Z,75.50
2019-04-06T18:13:22.976Z,76.00
2019-04-06T18:15:51.865Z,76.90
2019-04-06T18:18:20.404Z,77.60
2019-04-06T18:20:49.233Z,78.30
2019-04-06T18:23:17.739Z,79.30
2019-04-06T18:25:46.142Z,80.30
2019-04-06T18:28:14.994Z,81.50
2019-04-06T18:30:45.032Z,82.40
2019-04-06T18:33:15.073Z,83.50
2019-04-06T18:35:43.546Z,84.30
2019-04-06T18:38:13.628Z,85.10
2019-04-06T18:40:42.994Z,85.90
2019-04-06T18:43:11.612Z,87.20
2019-04-06T18:45:40.010Z,87.80
2019-04-06T18:48:08.969Z,88.60
2019-04-06T18:50:38.910Z,89.10
2019-04-06T18:53:07.798Z,89.80
2019-04-06T18:55:36.271Z,90.20
2019-04-06T18:58:11.286Z,90.70
2019-04-06T19:00:34.988Z,90.70
2019-04-06T19:03:12.728Z,90.90
2019-04-06T19:05:33.627Z,91.20
2019-04-06T19:08:02.099Z,91.70
2019-04-06T19:10:30.605Z,92.30
2019-04-06T19:12:59.061Z,92.50
2019-04-06T19:15:27.495Z,92.80
2019-04-06T19:17:55.928Z,92.40
2019-04-06T19:20:25.009Z,92.20
2019-04-06T19:22:53.504Z,92.50
2019-04-06T19:25:21.956Z,92.80
2019-04-06T19:27:50.859Z,93.10
2019-04-06T19:30:20.369Z,93.30
2019-04-06T19:32:48.803Z,93.90
2019-04-06T19:35:17.237Z,94.00
2019-04-06T19:37:45.643Z,94.30
2019-04-06T19:40:16.214Z,94.10
2019-04-06T19:42:44.621Z,94.10
2019-04-06T19:45:13.161Z,94.20
2019-04-06T19:47:41.617Z,94.30
2019-04-06T19:50:10.575Z,94.60
2019-04-06T19:52:39.276Z,95.20
2019-04-06T19:55:08.253Z,95.20
2019-04-06T19:57:36.867Z,94.90
2019-04-06T20:00:09.083Z,94.90
2019-04-06T20:02:38.042Z,94.90
2019-04-06T20:05:08.436Z,95.00
2019-04-06T20:07:36.853Z,95.10
2019-04-06T20:10:08.396Z,95.20
2019-04-06T20:12:36.865Z,95.40
2019-04-06T20:15:06.893Z,95.10
2019-04-06T20:17:35.491Z,95.00
2019-04-06T20:20:06.545Z,95.10
2019-04-06T20:22:35.309Z,95.20
2019-04-06T20:25:05.945Z,95.70
2019-04-06T20:27:34.399Z,96.20
2019-04-06T20:30:04.523Z,96.60
2019-04-06T20:32:33.006Z,96.70
2019-04-06T20:35:01.560Z,97.30
2019-04-06T20:37:29.975Z,97.80
2019-04-06T20:39:58.376Z,97.90
2019-04-06T20:42:26.837Z,97.80
2019-04-06T20:44:55.240Z,98.10
2019-04-06T20:47:24.176Z,98.20
2019-04-06T20:49:52.780Z,97.80
2019-04-06T20:52:21.709Z,97.00
2019-04-06T20:54:50.176Z,96.70
2019-04-06T20:57:20.177Z,97.00
2019-04-06T20:59:48.742Z,97.10
2019-04-06T21:02:17.340Z,96.90
2019-04-06T21:04:45.835Z,97.20
2019-04-06T21:07:14.777Z,97.20
2019-04-06T21:09:43.800Z,97.30
2019-04-06T21:12:12.732Z,97.50
2019-04-06T21:14:41.520Z,97.40
2019-04-06T21:17:10.563Z,97.40
2019-04-06T21:19:39.425Z,97.60
2019-04-06T21:22:08.103Z,97.40
2019-04-06T21:24:37.309Z,97.40
2019-04-06T21:27:06.288Z,97.70
2019-04-06T21:29:34.701Z,97.70
2019-04-06T21:32:04.004Z,97.90
2019-04-06T21:34:32.761Z,98.00
2019-04-06T21:37:01.214Z,98.40
2019-04-06T21:39:30.629Z,98.70
2019-04-06T21:41:59.698Z,99.00
2019-04-06T21:44:28.153Z,99.10
2019-04-06T21:46:57.398Z,99.50
2019-04-06T21:49:25.893Z,99.30
2019-04-06T21:51:54.285Z,99.20
2019-04-06T21:54:22.926Z,99.30
2019-04-06T21:56:51.838Z,99.00
2019-04-06T21:59:20.837Z,99.20
2019-04-06T22:01:50.123Z,99.40
2019-04-06T22:04:25.381Z,99.50
2019-04-06T22:06:49.796Z,99.60
2019-04-06T22:09:18.633Z,99.60
2019-04-06T22:11:47.174Z,99.50
2019-04-06T22:14:15.856Z,99.50
2019-04-06T22:16:44.635Z,99.50
2019-04-06T22:19:13.124Z,99.60
2019-04-06T22:21:41.577Z,99.90
2019-04-06T22:24:10.541Z,99.90
2019-04-06T22:26:39.361Z,99.90
2019-04-06T22:29:08.177Z,99.90
2019-04-06T22:31:37.070Z,99.90
2019-04-06T22:34:05.604Z,99.90
2019-04-06T22:36:34.515Z,99.90
2019-04-06T22:39:03.227Z,99.90
2019-04-06T22:41:31.700Z,99.90
2019-04-06T22:44:00.717Z,99.90
2019-04-06T22:46:29.692Z,99.90
2019-04-06T22:48:58.538Z,99.90
2019-04-06T22:51:27.343Z,99.90
2019-04-06T22:53:55.793Z,99.90
2019-04-06T22:56:24.269Z,99.90
2019-04-06T22:58:52.721Z,99.90
2019-04-06T23:01:22.859Z,99.90
2019-04-06T23:03:52.929Z,99.90
2019-04-06T23:06:25.692Z,99.90
2019-04-06T23:08:54.094Z,99.90
2019-04-06T23:11:22.657Z,99.90
2019-04-06T23:13:51.578Z,99.90
2019-04-06T23:16:20.675Z,99.90
2019-04-06T23:18:51.212Z,99.90
2019-04-06T23:21:20.270Z,99.90
2019-04-06T23:23:48.782Z,99.90
2019-04-06T23:26:17.276Z,99.90
2019-04-06T23:28:45.771Z,99.90
2019-04-06T23:31:14.746Z,99.90
2019-04-06T23:33:43.292Z,99.90
2019-04-06T23:36:11.954Z,99.90
2019-04-06T23:38:40.488Z,99.90
2019-04-06T23:41:09.421Z,99.90
2019-04-06T23:43:37.901Z,99.90
2019-04-06T23:46:06.388Z,99.90
2019-04-06T23:48:34.928Z,99.90
2019-04-06T23:51:03.376Z,99.90
2019-04-06T23:53:31.781Z,99.90
2019-04-06T23:56:00.237Z,99.90
2019-04-06T23:58:29.599Z,99.90
